Time;durP1;ratioP1;P1;durP2;ratioP2;P2;SDS_P1;SDS_P2;PMS_P1;PMS_P2;Temp;Humidity;BMP_temperature;BMP_pressure;BME280_temperature;BME280_humidity;BME280_pressure;Samples;Min_cycle;Max_cycle;Signal;HPM_P1;HPM_P2
2022/11/04 00:01:04;;;;;;;25.85;23.60;;;;;;;;;;10149429;28;20054;-70
2022/11/04 00:06:01;;;;;;;28.58;26.58;;;;;;;;;;10149411;28;20100;-70
2022/11/04 00:37:13;;;;;;;38.97;36.58;;;;;;;;;;10144220;28;20038;-69
2022/11/04 00:42:09;;;;;;;39.05;36.42;;;;;;;;;;10149646;28;20046;-70
2022/11/04 00:47:05;;;;;;;37.38;35.10;;;;;;;;;;10144137;28;20045;-69
2022/11/04 00:52:02;;;;;;;37.00;34.40;;;;;;;;;;10139996;28;20049;-72
2022/11/04 00:56:58;;;;;;;38.88;36.47;;;;;;;;;;10145124;28;20426;-69
2022/11/04 01:01:54;;;;;;;37.83;35.20;;;;;;;;;;10152789;28;20050;-70
2022/11/04 01:06:51;;;;;;;39.78;37.17;;;;;;;;;;10144006;28;20046;-70
2022/11/04 01:11:47;;;;;;;38.55;36.28;;;;;;;;;;10147706;28;20394;-70
2022/11/04 01:16:43;;;;;;;39.78;37.45;;;;;;;;;;10145263;28;20544;-71
2022/11/04 01:21:40;;;;;;;40.63;37.83;;;;;;;;;;10149809;28;20054;-71
2022/11/04 01:26:36;;;;;;;45.33;42.33;;;;;;;;;;10153819;28;20056;-71
2022/11/04 01:31:32;;;;;;;45.42;42.60;;;;;;;;;;10139786;28;20048;-71
2022/11/04 01:36:28;;;;;;;43.30;40.63;;;;;;;;;;10139908;28;20056;-70
2022/11/04 01:41:26;;;;;;;44.72;42.08;;;;;;;;;;10153088;28;20057;-71
2022/11/04 01:46:36;;;;;;;45.67;42.88;;;;;;;;;;10140164;28;20074;-71
2022/11/04 01:51:35;;;;;;;45.20;41.63;;;;;;;;;;10150015;28;20399;-72
2022/11/04 01:56:31;;;;;;;46.15;43.55;;;;;;;;;;10134457;28;20047;-71
2022/11/04 02:01:28;;;;;;;46.92;44.28;;;;;;;;;;10144056;28;20054;-71
2022/11/04 02:06:24;;;;;;;49.95;46.90;;;;;;;;;;10149376;28;20461;-71
2022/11/04 02:16:41;;;;;;;54.80;51.42;;;;;;;;;;10150206;28;20064;-69
2022/11/04 02:21:40;;;;;;;56.73;53.43;;;;;;;;;;10135893;28;20050;-69
2022/11/04 02:26:49;;;;;;;56.97;53.80;;;;;;;;;;10146362;28;20476;-69
2022/11/04 02:31:48;;;;;;;56.53;53.25;;;;;;;;;;10137754;28;20046;-71
2022/11/04 02:36:53;;;;;;;55.80;52.50;;;;;;;;;;10137235;28;20055;-71
2022/11/04 02:41:57;;;;;;;62.17;58.58;;;;;;;;;;10138717;28;20054;-71
2022/11/04 02:47:05;;;;;;;66.03;62.42;;;;;;;;;;10135662;28;20053;-70
2022/11/04 02:52:04;;;;;;;70.53;66.63;;;;;;;;;;10148560;28;20046;-73
2022/11/04 02:57:02;;;;;;;76.00;71.65;;;;;;;;;;10138509;28;20046;-73
2022/11/04 03:02:00;;;;;;;70.32;66.18;;;;;;;;;;10140454;28;20530;-70
2022/11/04 03:06:57;;;;;;;80.00;75.60;;;;;;;;;;10136953;28;20046;-69
2022/11/04 03:12:01;;;;;;;85.78;81.07;;;;;;;;;;10141428;28;20050;-70
2022/11/04 03:17:00;;;;;;;87.40;82.45;;;;;;;;;;10140259;28;20137;-69
2022/11/04 03:22:02;;;;;;;84.13;79.53;;;;;;;;;;10133659;28;20670;-70
2022/11/04 03:27:01;;;;;;;91.43;86.18;;;;;;;;;;10135865;28;20499;-71
2022/11/04 03:32:07;;;;;;;93.50;88.55;;;;;;;;;;10145259;28;20150;-71
2022/11/04 03:37:04;;;;;;;91.60;86.60;;;;;;;;;;10133578;28;20042;-71
2022/11/04 03:42:18;;;;;;;100.93;95.10;;;;;;;;;;10136624;28;20592;-70
2022/11/04 03:47:16;;;;;;;104.03;98.22;;;;;;;;;;10140954;28;20034;-70
2022/11/04 03:52:12;;;;;;;106.53;100.32;;;;;;;;;;10148798;28;20410;-70
2022/11/04 03:57:09;;;;;;;106.47;100.47;;;;;;;;;;10140105;28;20054;-70
2022/11/04 04:02:14;;;;;;;109.25;102.93;;;;;;;;;;10147974;28;20057;-72
2022/11/04 04:07:19;;;;;;;113.97;107.13;;;;;;;;;;10143317;28;20073;-70
2022/11/04 04:12:39;;;;;;;112.22;105.78;;;;;;;;;;10148536;28;20129;-70
2022/11/04 04:17:38;;;;;;;110.13;103.30;;;;;;;;;;10150322;28;20073;-71
2022/11/04 04:22:40;;;;;;;113.40;106.80;;;;;;;;;;10141543;28;20660;-71
2022/11/04 04:27:36;;;;;;;;;;;;;;;;;;10152778;28;20046;-71
2022/11/04 04:32:36;;;;;;;112.75;105.78;;;;;;;;;;10151314;28;19928;-71
2022/11/04 04:37:32;;;;;;;122.10;114.95;;;;;;;;;;10137732;28;20046;-71
2022/11/04 04:47:50;;;;;;;123.55;116.85;;;;;;;;;;10143676;28;20060;-69
2022/11/04 04:52:50;;;;;;;115.47;109.30;;;;;;;;;;10140672;28;20047;-71
2022/11/04 04:57:46;;;;;;;111.85;106.07;;;;;;;;;;10146058;28;20268;-71
2022/11/04 05:02:43;;;;;;;85.07;80.55;;;;;;;;;;10143889;28;20051;-69
2022/11/04 05:07:39;;;;;;;42.65;40.35;;;;;;;;;;10138870;28;20051;-67
2022/11/04 05:17:55;;;;;;;32.75;30.85;;;;;;;;;;10134038;28;20050;-74
2022/11/04 05:22:53;;;;;;;27.77;26.27;;;;;;;;;;10133272;28;20034;-74
2022/11/04 05:27:49;;;;;;;23.98;22.67;;;;;;;;;;10140563;28;20047;-74
2022/11/04 05:32:45;;;;;;;24.63;23.13;;;;;;;;;;10139304;28;20050;-72
2022/11/04 05:37:42;;;;;;;26.25;24.73;;;;;;;;;;10137950;28;20042;-74
2022/11/04 05:42:38;;;;;;;25.17;23.55;;;;;;;;;;10144191;28;20072;-74
2022/11/04 05:47:34;;;;;;;24.55;22.83;;;;;;;;;;10141763;28;20066;-74
2022/11/04 05:52:31;;;;;;;22.20;20.77;;;;;;;;;;10141432;28;20578;-75
2022/11/04 05:57:27;;;;;;;22.30;20.95;;;;;;;;;;10136706;28;20050;-71
2022/11/04 06:02:23;;;;;;;22.60;21.30;;;;;;;;;;10129057;28;20581;-71
2022/11/04 06:07:20;;;;;;;24.17;22.77;;;;;;;;;;10131864;28;20039;-71
2022/11/04 06:12:16;;;;;;;22.20;20.95;;;;;;;;;;10129163;28;20422;-71
2022/11/04 06:17:13;;;;;;;24.92;23.30;;;;;;;;;;10130149;28;20050;-72
2022/11/04 06:22:10;;;;;;;23.92;22.52;;;;;;;;;;10118540;28;20049;-74
2022/11/04 06:27:07;;;;;;;23.88;22.42;;;;;;;;;;10143300;28;20066;-73
2022/11/04 06:32:04;;;;;;;22.80;21.40;;;;;;;;;;10141197;28;20047;-74
2022/11/04 06:37:00;;;;;;;25.50;23.73;;;;;;;;;;10132661;28;20422;-74
2022/11/04 06:41:56;;;;;;;24.63;23.17;;;;;;;;;;10141472;28;20055;-73
2022/11/04 06:46:56;;;;;;;24.92;23.33;;;;;;;;;;10136729;28;20061;-71
2022/11/04 06:51:53;;;;;;;25.02;23.52;;;;;;;;;;10131754;28;20047;-74
2022/11/04 06:56:49;;;;;;;27.13;25.52;;;;;;;;;;10127695;28;20061;-74
2022/11/04 07:01:46;;;;;;;29.77;27.95;;;;;;;;;;10133614;28;20050;-74
2022/11/04 07:06:42;;;;;;;32.63;30.63;;;;;;;;;;10126727;28;20061;-72
2022/11/04 07:11:40;;;;;;;32.85;30.85;;;;;;;;;;10120325;28;20137;-73
2022/11/04 07:16:36;;;;;;;34.38;32.38;;;;;;;;;;10128560;28;20545;-72
2022/11/04 07:21:33;;;;;;;36.90;34.40;;;;;;;;;;10135234;28;20059;-71
2022/11/04 07:26:29;;;;;;;36.35;33.70;;;;;;;;;;10129772;28;20047;-72
2022/11/04 07:31:25;;;;;;;36.40;34.30;;;;;;;;;;10133144;28;20038;-72
2022/11/04 07:36:23;;;;;;;36.50;34.25;;;;;;;;;;10130572;28;20034;-72
2022/11/04 07:41:19;;;;;;;40.13;37.63;;;;;;;;;;10129662;28;20509;-72
2022/11/04 07:46:16;;;;;;;36.42;34.15;;;;;;;;;;10130231;28;20062;-71
2022/11/04 07:51:15;;;;;;;38.53;35.90;;;;;;;;;;10130024;28;20045;-72
2022/11/04 07:56:12;;;;;;;38.50;36.20;;;;;;;;;;10131185;28;20414;-71
2022/11/04 08:01:09;;;;;;;37.42;35.13;;;;;;;;;;10143860;28;20046;-70
2022/11/04 08:06:06;;;;;;;34.55;32.45;;;;;;;;;;10131142;28;20057;-71
2022/11/04 08:11:04;;;;;;;34.30;32.10;;;;;;;;;;10140761;28;20064;-72
2022/11/04 08:16:02;;;;;;;34.15;32.05;;;;;;;;;;10127998;28;20473;-72
2022/11/04 08:20:59;;;;;;;30.95;29.02;;;;;;;;;;10144815;28;20039;-72
2022/11/04 08:25:55;;;;;;;30.85;28.95;;;;;;;;;;10135985;28;20531;-72
2022/11/04 08:30:51;;;;;;;29.75;27.95;;;;;;;;;;10133838;28;20046;-72
2022/11/04 08:35:48;;;;;;;26.90;25.20;;;;;;;;;;10135244;28;20275;-72
2022/11/04 08:40:44;;;;;;;27.13;25.42;;;;;;;;;;10132030;28;20532;-71
2022/11/04 08:45:42;;;;;;;27.55;25.75;;;;;;;;;;10137434;28;20093;-72
2022/11/04 08:50:38;;;;;;;25.73;23.92;;;;;;;;;;10135132;28;20713;-71
2022/11/04 08:55:35;;;;;;;25.98;24.20;;;;;;;;;;10140513;28;20418;-71
2022/11/04 09:00:31;;;;;;;26.27;24.58;;;;;;;;;;10133369;28;20054;-71
2022/11/04 09:05:28;;;;;;;23.80;22.23;;;;;;;;;;10144084;28;20054;-72
2022/11/04 09:10:24;;;;;;;23.70;22.08;;;;;;;;;;10137175;28;20046;-71
2022/11/04 09:15:20;;;;;;;23.17;21.63;;;;;;;;;;10133590;28;20125;-71
2022/11/04 09:20:17;;;;;;;21.80;20.40;;;;;;;;;;10133311;28;20049;-71
2022/11/04 09:25:13;;;;;;;22.33;20.77;;;;;;;;;;10124723;28;20043;-71
2022/11/04 09:30:10;;;;;;;20.40;19.10;;;;;;;;;;10120660;28;20062;-70
2022/11/04 09:35:06;;;;;;;20.85;19.35;;;;;;;;;;10123324;28;20046;-69
2022/11/04 09:40:03;;;;;;;19.95;18.70;;;;;;;;;;10131212;28;20043;-71
2022/11/04 09:45:18;;;;;;;19.70;18.38;;;;;;;;;;10127683;28;20045;-71
2022/11/04 09:50:29;;;;;;;19.05;17.65;;;;;;;;;;10123950;28;20046;-73
2022/11/04 09:55:31;;;;;;;17.17;16.02;;;;;;;;;;10138023;28;20125;-73
2022/11/04 10:00:30;;;;;;;17.13;16.02;;;;;;;;;;10126006;28;20586;-73
2022/11/04 10:05:38;;;;;;;17.25;16.13;;;;;;;;;;10127528;28;20050;-71
2022/11/04 10:10:40;;;;;;;20.70;19.30;;;;;;;;;;10123055;28;20396;-72
2022/11/04 10:15:42;;;;;;;18.50;17.30;;;;;;;;;;10133155;28;20417;-72
2022/11/04 10:20:44;;;;;;;20.38;19.08;;;;;;;;;;10125731;28;20050;-73
2022/11/04 10:25:45;;;;;;;21.52;20.20;;;;;;;;;;10145928;28;20787;-73
2022/11/04 10:30:45;;;;;;;22.02;20.52;;;;;;;;;;10134099;28;20050;-72
2022/11/04 10:35:44;;;;;;;20.63;19.23;;;;;;;;;;10134724;28;20050;-72
2022/11/04 10:40:41;;;;;;;23.38;21.75;;;;;;;;;;10138885;28;20050;-72
2022/11/04 10:46:07;;;;;;;20.77;19.58;;;;;;;;;;10129887;28;20061;-72
2022/11/04 10:51:03;;;;;;;19.92;18.58;;;;;;;;;;10125173;28;20054;-73
2022/11/04 10:56:26;;;;;;;20.20;18.95;;;;;;;;;;10134909;28;20579;-72
2022/11/04 11:01:22;;;;;;;19.98;18.77;;;;;;;;;;10125522;28;20070;-72
2022/11/04 11:06:18;;;;;;;18.90;17.60;;;;;;;;;;10122854;28;20530;-73
2022/11/04 11:11:15;;;;;;;17.80;16.65;;;;;;;;;;10126695;28;20054;-73
2022/11/04 11:16:19;;;;;;;16.20;15.18;;;;;;;;;;10127854;28;20059;-73
2022/11/04 11:21:20;;;;;;;17.80;16.50;;;;;;;;;;10132705;28;20582;-74
2022/11/04 11:26:20;;;;;;;16.48;15.20;;;;;;;;;;10138281;28;20132;-74
2022/11/04 11:31:22;;;;;;;14.52;13.52;;;;;;;;;;10145308;28;20054;-74
2022/11/04 11:36:23;;;;;;;14.57;13.37;;;;;;;;;;10138806;28;20045;-74
2022/11/04 11:41:22;;;;;;;13.73;12.82;;;;;;;;;;10151773;28;20457;-74
2022/11/04 11:46:25;;;;;;;13.73;12.93;;;;;;;;;;10134241;28;20043;-75
2022/11/04 11:51:22;;;;;;;14.80;13.80;;;;;;;;;;10135561;28;20106;-73
2022/11/04 11:56:28;;;;;;;14.48;13.20;;;;;;;;;;10133231;28;20113;-74
2022/11/04 12:02:05;;;;;;;14.00;13.07;;;;;;;;;;10150303;28;20054;-74
2022/11/04 12:07:26;;;;;;;12.27;11.38;;;;;;;;;;10121108;28;20046;-75
2022/11/04 12:12:43;;;;;;;12.45;11.45;;;;;;;;;;10127490;28;20465;-74
2022/11/04 12:17:42;;;;;;;12.05;11.25;;;;;;;;;;10133065;28;20053;-74
2022/11/04 12:22:39;;;;;;;11.23;10.32;;;;;;;;;;10133870;28;20677;-74
2022/11/04 12:27:51;;;;;;;12.40;11.25;;;;;;;;;;10127464;28;20426;-74
2022/11/04 12:32:53;;;;;;;12.00;10.90;;;;;;;;;;10133981;28;20058;-73
2022/11/04 12:37:58;;;;;;;12.60;11.57;;;;;;;;;;10129399;28;20394;-74
2022/11/04 12:43:27;;;;;;;11.90;11.02;;;;;;;;;;10135644;28;20049;-74
2022/11/04 12:48:47;;;;;;;11.73;9.80;;;;;;;;;;10099744;28;20126;-74
2022/11/04 12:54:11;;;;;;;10.23;9.32;;;;;;;;;;10127400;28;20094;-74
2022/11/04 12:59:20;;;;;;;10.93;9.93;;;;;;;;;;10123714;28;20050;-75
2022/11/04 13:04:19;;;;;;;10.90;9.98;;;;;;;;;;10133387;28;20418;-74
2022/11/04 13:09:19;;;;;;;10.25;9.55;;;;;;;;;;10139220;28;20042;-74
2022/11/04 13:14:28;;;;;;;10.55;9.70;;;;;;;;;;10130161;28;20050;-74
2022/11/04 13:19:27;;;;;;;11.00;10.00;;;;;;;;;;10123599;28;20053;-70
2022/11/04 13:24:30;;;;;;;12.80;9.85;;;;;;;;;;10126775;28;20049;-73
2022/11/04 13:29:26;;;;;;;;;;;;;;;;;;10127165;28;20043;-71
2022/11/04 13:34:41;;;;;;;11.57;9.98;;;;;;;;;;10127314;28;19922;-70
2022/11/04 13:39:47;;;;;;;10.38;9.68;;;;;;;;;;10123929;28;20438;-73
2022/11/04 13:44:49;;;;;;;11.02;9.93;;;;;;;;;;10117447;28;20130;-73
2022/11/04 13:49:54;;;;;;;10.50;9.70;;;;;;;;;;10137010;28;20046;-73
2022/11/04 13:54:51;;;;;;;9.52;8.73;;;;;;;;;;10129438;28;20057;-73
2022/11/04 14:00:06;;;;;;;11.13;9.90;;;;;;;;;;10134062;28;20066;-73
2022/11/04 14:05:22;;;;;;;10.00;9.18;;;;;;;;;;10126756;28;20525;-71
2022/11/04 14:10:38;;;;;;;11.52;10.32;;;;;;;;;;10117392;28;20046;-71
2022/11/04 14:15:53;;;;;;;10.35;9.45;;;;;;;;;;10129706;28;20622;-73
2022/11/04 14:21:08;;;;;;;11.63;10.60;;;;;;;;;;10129259;28;20053;-72
2022/11/04 14:26:08;;;;;;;11.75;10.75;;;;;;;;;;10132369;28;20042;-72
2022/11/04 14:31:08;;;;;;;12.20;11.30;;;;;;;;;;10129062;28;20427;-70
2022/11/04 14:36:15;;;;;;;11.52;10.50;;;;;;;;;;10136658;28;20101;-71
2022/11/04 14:41:14;;;;;;;12.73;11.82;;;;;;;;;;10132108;28;20050;-71
2022/11/04 14:46:12;;;;;;;14.13;12.88;;;;;;;;;;10137657;28;20403;-69
2022/11/04 14:51:17;;;;;;;16.65;15.27;;;;;;;;;;10120733;28;20521;-70
2022/11/04 14:56:15;;;;;;;18.00;16.80;;;;;;;;;;10122845;28;20046;-73
2022/11/04 15:01:19;;;;;;;17.60;16.08;;;;;;;;;;10116303;28;20043;-72
2022/11/04 15:06:22;;;;;;;18.27;16.85;;;;;;;;;;10123835;28;20061;-72
2022/11/04 15:16:54;;;;;;;19.75;18.35;;;;;;;;;;10121086;28;20064;-71
2022/11/04 15:21:51;;;;;;;17.40;16.15;;;;;;;;;;10127690;28;20519;-73
2022/11/04 15:26:50;;;;;;;19.00;17.73;;;;;;;;;;10129424;28;20050;-73
2022/11/04 15:32:05;;;;;;;20.90;19.25;;;;;;;;;;10139333;28;20541;-73
2022/11/04 15:37:04;;;;;;;21.20;19.80;;;;;;;;;;10134879;28;20073;-72
2022/11/04 15:47:17;;;;;;;24.92;23.35;;;;;;;;;;10138455;28;20414;-72
2022/11/04 15:52:16;;;;;;;26.35;24.75;;;;;;;;;;10126456;28;20047;-73
2022/11/04 15:57:13;;;;;;;29.10;27.42;;;;;;;;;;10133017;28;20557;-73
2022/11/04 16:02:21;;;;;;;29.80;27.60;;;;;;;;;;10116147;28;20058;-73
2022/11/04 16:07:20;;;;;;;26.80;25.08;;;;;;;;;;10133640;28;20047;-73
2022/11/04 16:12:20;;;;;;;21.25;19.85;;;;;;;;;;10135068;28;20054;-72
2022/11/04 16:17:17;;;;;;;20.80;19.20;;;;;;;;;;10135779;28;20546;-70
2022/11/04 16:22:17;;;;;;;19.05;17.65;;;;;;;;;;10138767;28;20050;-73
2022/11/04 16:27:17;;;;;;;19.45;17.88;;;;;;;;;;10138685;28;20530;-72
2022/11/04 16:32:17;;;;;;;18.67;17.25;;;;;;;;;;10132871;28;20054;-72
2022/11/04 16:37:13;;;;;;;18.33;17.23;;;;;;;;;;10128024;28;20114;-72
2022/11/04 16:42:13;;;;;;;20.88;19.20;;;;;;;;;;10127581;28;20098;-72
2022/11/04 16:47:10;;;;;;;20.58;19.15;;;;;;;;;;10130667;28;20046;-72
2022/11/04 16:52:11;;;;;;;22.45;20.70;;;;;;;;;;10138780;28;20047;-71
2022/11/04 16:57:10;;;;;;;24.20;22.08;;;;;;;;;;10134586;28;20547;-72
2022/11/04 17:02:13;;;;;;;24.83;23.08;;;;;;;;;;10150032;28;20566;-72
2022/11/04 17:07:10;;;;;;;25.05;23.25;;;;;;;;;;10135658;28;20047;-72
2022/11/04 17:12:06;;;;;;;26.90;25.10;;;;;;;;;;10136906;28;20411;-73
2022/11/04 17:17:03;;;;;;;25.80;23.90;;;;;;;;;;10140989;28;20600;-72
2022/11/04 17:22:01;;;;;;;27.55;25.40;;;;;;;;;;10125947;28;20077;-72
2022/11/04 17:26:58;;;;;;;28.05;26.35;;;;;;;;;;10127117;28;20050;-72
2022/11/04 17:31:55;;;;;;;29.85;27.95;;;;;;;;;;10132931;28;20062;-72
2022/11/04 17:36:54;;;;;;;32.95;30.58;;;;;;;;;;10132378;28;20077;-72
2022/11/04 17:47:06;;;;;;;35.88;33.30;;;;;;;;;;10133698;28;20506;-73
2022/11/04 17:52:04;;;;;;;35.30;32.78;;;;;;;;;;10132902;28;20601;-73
2022/11/04 17:57:00;;;;;;;33.72;31.35;;;;;;;;;;10135151;28;20049;-73
2022/11/04 18:01:56;;;;;;;35.63;33.22;;;;;;;;;;10131605;28;20042;-73
2022/11/04 18:06:53;;;;;;;33.63;31.42;;;;;;;;;;10130527;28;20434;-73
2022/11/04 18:17:12;;;;;;;33.28;31.08;;;;;;;;;;10134597;28;20054;-73
2022/11/04 18:22:09;;;;;;;36.80;34.47;;;;;;;;;;10141172;28;20138;-72
2022/11/04 18:27:06;;;;;;;40.80;37.90;;;;;;;;;;10125028;28;20597;-72
2022/11/04 18:32:02;;;;;;;37.95;35.47;;;;;;;;;;10123082;28;20438;-70
2022/11/04 18:36:59;;;;;;;37.28;34.38;;;;;;;;;;10126464;28;20054;-70
2022/11/04 18:41:55;;;;;;;35.45;33.25;;;;;;;;;;10138894;28;20042;-71
2022/11/04 18:46:52;;;;;;;36.92;34.20;;;;;;;;;;10127025;28;20054;-70
2022/11/04 18:51:48;;;;;;;34.05;31.23;;;;;;;;;;10125509;28;20585;-71
2022/11/04 18:56:44;;;;;;;30.83;28.70;;;;;;;;;;10123789;28;20054;-71
2022/11/04 19:01:41;;;;;;;33.97;31.58;;;;;;;;;;10128424;28;20677;-70
2022/11/04 19:06:39;;;;;;;35.17;32.42;;;;;;;;;;10133438;28;20062;-71
2022/11/04 19:11:38;;;;;;;35.25;33.05;;;;;;;;;;10111569;28;20049;-71
2022/11/04 19:16:35;;;;;;;40.28;37.63;;;;;;;;;;10126707;28;20038;-71
2022/11/04 19:21:32;;;;;;;38.85;36.40;;;;;;;;;;10135881;28;20438;-71
2022/11/04 19:26:29;;;;;;;42.22;39.05;;;;;;;;;;10141977;28;20053;-71
2022/11/04 19:31:27;;;;;;;49.25;45.90;;;;;;;;;;10131489;28;20049;-71
2022/11/04 19:36:24;;;;;;;50.53;46.70;;;;;;;;;;10129257;28;20055;-71
2022/11/04 19:46:36;;;;;;;54.17;50.88;;;;;;;;;;10141996;28;20113;-70
2022/11/04 19:51:32;;;;;;;50.90;47.47;;;;;;;;;;10137755;28;20043;-71
2022/11/04 19:56:32;;;;;;;51.42;48.28;;;;;;;;;;10146232;28;20046;-70
2022/11/04 20:01:28;;;;;;;51.70;48.30;;;;;;;;;;10153897;28;20062;-71
2022/11/04 20:06:24;;;;;;;52.65;49.28;;;;;;;;;;10141783;28;20050;-70
2022/11/04 20:11:21;;;;;;;52.50;48.70;;;;;;;;;;10146785;28;20804;-70
2022/11/04 20:16:19;;;;;;;55.15;51.65;;;;;;;;;;10147610;28;20048;-70
2022/11/04 20:21:16;;;;;;;56.58;52.85;;;;;;;;;;10136652;28;20046;-70
2022/11/04 20:26:14;;;;;;;56.25;52.90;;;;;;;;;;10140995;28;20058;-70
2022/11/04 20:31:17;;;;;;;60.17;56.75;;;;;;;;;;10146380;28;20525;-70
2022/11/04 20:36:14;;;;;;;60.47;56.85;;;;;;;;;;10145301;28;20070;-70
2022/11/04 20:41:20;;;;;;;60.30;56.45;;;;;;;;;;10150281;28;20498;-70
2022/11/04 20:46:18;;;;;;;65.88;61.90;;;;;;;;;;10126126;28;20667;-71
2022/11/04 20:51:18;;;;;;;69.05;63.55;;;;;;;;;;10149134;28;20053;-70
2022/11/04 20:56:16;;;;;;;67.72;63.58;;;;;;;;;;10147032;28;20498;-70
2022/11/04 21:01:14;;;;;;;72.30;67.93;;;;;;;;;;10137525;28;20042;-69
2022/11/04 21:06:11;;;;;;;73.50;68.85;;;;;;;;;;10117656;28;20134;-69
2022/11/04 21:11:07;;;;;;;75.63;71.18;;;;;;;;;;10131280;28;20050;-70
2022/11/04 21:16:04;;;;;;;78.10;72.90;;;;;;;;;;10131040;28;20220;-72
2022/11/04 21:21:04;;;;;;;80.93;76.03;;;;;;;;;;10143918;28;20247;-71
2022/11/04 21:26:05;;;;;;;82.00;77.25;;;;;;;;;;10122524;28;20338;-71
2022/11/04 21:31:06;;;;;;;72.88;68.50;;;;;;;;;;10115478;28;20142;-71
2022/11/04 21:36:06;;;;;;;77.68;73.30;;;;;;;;;;10116410;28;20052;-70
2022/11/04 21:41:04;;;;;;;84.35;79.38;;;;;;;;;;10121033;28;20691;-73
2022/11/04 21:46:01;;;;;;;82.60;77.72;;;;;;;;;;10115211;28;20054;-72
2022/11/04 21:51:02;;;;;;;87.70;82.85;;;;;;;;;;10128152;28;20061;-71
2022/11/04 21:56:03;;;;;;;83.07;78.35;;;;;;;;;;10139406;28;20046;-71
2022/11/04 22:01:00;;;;;;;81.25;76.57;;;;;;;;;;10131547;28;20053;-71
2022/11/04 22:05:57;;;;;;;82.93;78.05;;;;;;;;;;10142556;28;20046;-73
2022/11/04 22:10:54;;;;;;;80.80;75.90;;;;;;;;;;10136969;28;20053;-73
2022/11/04 22:16:00;;;;;;;85.68;80.80;;;;;;;;;;10142140;28;20053;-72
2022/11/04 22:20:59;;;;;;;91.47;86.10;;;;;;;;;;10145335;28;20065;-72
2022/11/04 22:25:59;;;;;;;90.43;85.45;;;;;;;;;;10131007;28;20121;-72
2022/11/04 22:30:56;;;;;;;98.75;93.03;;;;;;;;;;10144738;28;20048;-71
2022/11/04 22:35:52;;;;;;;97.47;92.22;;;;;;;;;;10147021;28;20054;-72
2022/11/04 22:40:56;;;;;;;98.00;92.55;;;;;;;;;;10143156;28;20042;-72
2022/11/04 22:45:53;;;;;;;97.75;91.57;;;;;;;;;;10139673;28;20049;-68
2022/11/04 22:50:54;;;;;;;96.25;90.53;;;;;;;;;;10119209;28;20050;-72
2022/11/04 22:55:50;;;;;;;90.90;85.88;;;;;;;;;;10132193;28;20043;-69
2022/11/04 23:00:52;;;;;;;92.03;86.60;;;;;;;;;;10138582;28;20046;-69
2022/11/04 23:05:52;;;;;;;98.75;93.35;;;;;;;;;;10136019;28;20046;-70
2022/11/04 23:26:34;;;;;;;100.50;95.07;;;;;;;;;;10126812;28;20051;-70
2022/11/04 23:31:30;;;;;;;97.45;92.18;;;;;;;;;;10132253;28;20070;-70
